Big Bear Station Historical Data
 
Daily Summary for April 27, 2017 Units:  English    Metric   Both
« Previous Day
Next Day »
Daily Weekly Monthly Yearly Custom
  Current: High: Low: Average:
Temperature: 47.5 °F 65.5 °F 47.3 °F 54.2 °F
Dew Point: 30.7 °F 36.6 °F 15.7 °F 28.4 °F
Humidity: 52 % 54 % 21 % 38 %
Wind Speed: 8.9 mph 9.9 mph 1.1 mph 5.7 mph
Wind Gust: -999.0 mph -999.0 mph - -
Wind:NW - - WNW
Pressure: 23.32 in 23.41 in 23.30 in -
Precipitation: 0.00 in      
Historical Graphs
 
 
Tabular Data for April 27, 2017
Time Temperature Dew Point Pressure Wind Wind Speed Wind Gust Humidity Rainfall Rate (Hourly)
00:04 49.6 °F 33.6 °F 23.41 in North 4.2 mph -999.0 mph 54 % 0 in
00:19 49.3 °F 32.9 °F 23.40 in NW 2.7 mph -999.0 mph 53 % 0 in
00:34 48.6 °F 31.3 °F 23.40 in NE 1.1 mph -999.0 mph 51 % 0 in
00:50 48.6 °F 31.3 °F 23.40 in NW 5.3 mph -999.0 mph 51 % 0 in
01:05 48.0 °F 30.2 °F 23.39 in West 1.7 mph -999.0 mph 50 % 0 in
01:20 48.6 °F 30.8 °F 23.38 in NW 4.7 mph -999.0 mph 50 % 0 in
01:35 48.9 °F 27.4 °F 23.38 in North 4.7 mph -999.0 mph 43 % 0 in
01:51 49.5 °F 25.6 °F 23.37 in West 6.8 mph -999.0 mph 39 % 0 in
02:06 49.8 °F 26.4 °F 23.37 in North 4.2 mph -999.0 mph 40 % 0 in
02:22 50.5 °F 25.2 °F 23.36 in NNW 4.2 mph -999.0 mph 37 % 0 in
02:37 49.3 °F 28.3 °F 23.36 in NW 5.8 mph -999.0 mph 44 % 0 in
02:52 48.9 °F 26.2 °F 23.36 in North 2.7 mph -999.0 mph 41 % 0 in
03:07 49.1 °F 25.2 °F 23.35 in WNW 6.3 mph -999.0 mph 39 % 0 in
03:22 49.8 °F 25.8 °F 23.36 in NNE 5.3 mph -999.0 mph 39 % 0 in
03:38 49.5 °F 25.6 °F 23.35 in NW 5.8 mph -999.0 mph 39 % 0 in
03:53 50.5 °F 20.2 °F 23.36 in NW 5.3 mph -999.0 mph 30 % 0 in
04:08 50.7 °F 21.1 °F 23.36 in North 5.3 mph -999.0 mph 31 % 0 in
04:23 50.7 °F 20.4 °F 23.35 in NW 5.3 mph -999.0 mph 30 % 0 in
04:38 51.6 °F 18.7 °F 23.35 in NW 7.3 mph -999.0 mph 27 % 0 in
04:54 51.1 °F 22.2 °F 23.35 in ENE 3.7 mph -999.0 mph 32 % 0 in
05:09 50.5 °F 21.0 °F 23.35 in NW 4.2 mph -999.0 mph 31 % 0 in
05:24 50.5 °F 19.4 °F 23.35 in SSE 4.2 mph -999.0 mph 29 % 0 in
05:40 50.5 °F 19.4 °F 23.35 in South 6.8 mph -999.0 mph 29 % 0 in
05:55 50.0 °F 17.3 °F 23.34 in NW 7.3 mph -999.0 mph 27 % 0 in
06:10 50.2 °F 15.7 °F 23.34 in NW 6.8 mph -999.0 mph 25 % 0 in
06:26 49.8 °F 22.5 °F 23.35 in NW 8.3 mph -999.0 mph 34 % 0 in
06:41 49.1 °F 21.9 °F 23.35 in NW 5.8 mph -999.0 mph 34 % 0 in
06:56 49.3 °F 22.8 °F 23.35 in East 7.8 mph -999.0 mph 35 % 0 in
07:12 49.6 °F 24.4 °F 23.35 in North 5.8 mph -999.0 mph 37 % 0 in
07:27 49.5 °F 23.0 °F 23.35 in WNW 4.7 mph -999.0 mph 35 % 0 in
07:43 49.5 °F 20.8 °F 23.35 in WNW 2.2 mph -999.0 mph 32 % 0 in
07:58 49.5 °F 21.6 °F 23.35 in NNW 6.8 mph -999.0 mph 33 % 0 in
08:13 49.1 °F 24.6 °F 23.36 in NW 8.9 mph -999.0 mph 38 % 0 in
08:28 49.1 °F 26.4 °F 23.36 in NW 9.4 mph -999.0 mph 41 % 0 in
08:44 50.4 °F 23.8 °F 23.36 in North 6.3 mph -999.0 mph 35 % 0 in
08:59 52.0 °F 24.5 °F 23.36 in WNW 6.3 mph -999.0 mph 34 % 0 in
09:14 52.7 °F 24.4 °F 23.36 in NNW 5.8 mph -999.0 mph 33 % 0 in
09:29 54.0 °F 24.0 °F 23.36 in NNW 3.7 mph -999.0 mph 31 % 0 in
09:44 55.2 °F 24.3 °F 23.37 in NNW 4.2 mph -999.0 mph 30 % 0 in
10:00 56.7 °F 26.4 °F 23.37 in NNW 4.2 mph -999.0 mph 31 % 0 in
10:16 58.5 °F 23.7 °F 23.36 in NNW 6.8 mph -999.0 mph 26 % 0 in
10:31 59.7 °F 25.6 °F 23.36 in NE 3.7 mph -999.0 mph 27 % 0 in
10:46 61.0 °F 22.9 °F 23.35 in WSW 3.2 mph -999.0 mph 23 % 0 in
11:01 62.2 °F 24.9 °F 23.35 in NNW 3.7 mph -999.0 mph 24 % 0 in
11:16 64.0 °F 23.3 °F 23.35 in NNE 2.2 mph -999.0 mph 21 % 0 in
11:32 65.5 °F 27.7 °F 23.36 in NW 6.8 mph -999.0 mph 24 % 0 in
11:47 63.9 °F 30.1 °F 23.36 in NW 8.3 mph -999.0 mph 28 % 0 in
12:03 63.3 °F 30.5 °F 23.36 in NNW 7.3 mph -999.0 mph 29 % 0 in
12:18 65.5 °F 29.7 °F 23.35 in NNW 5.3 mph -999.0 mph 26 % 0 in
12:33 65.1 °F 31.2 °F 23.35 in NNW 6.3 mph -999.0 mph 28 % 0 in
12:49 62.8 °F 34.0 °F 23.35 in NNW 6.8 mph -999.0 mph 34 % 0 in
13:04 63.9 °F 35.7 °F 23.34 in WNW 4.7 mph -999.0 mph 35 % 0 in
13:20 63.9 °F 31.0 °F 23.33 in NNW 4.2 mph -999.0 mph 29 % 0 in
13:35 63.5 °F 32.3 °F 23.33 in ENE 6.3 mph -999.0 mph 31 % 0 in
13:50 65.3 °F 34.7 °F 23.34 in NNW 4.2 mph -999.0 mph 32 % 0 in
14:06 63.9 °F 36.4 °F 23.33 in North 6.3 mph -999.0 mph 36 % 0 in
14:21 63.1 °F 35.0 °F 23.33 in NNW 6.8 mph -999.0 mph 35 % 0 in
14:36 61.5 °F 34.3 °F 23.33 in NNW 7.8 mph -999.0 mph 36 % 0 in
14:51 62.6 °F 35.3 °F 23.32 in WNW 3.7 mph -999.0 mph 36 % 0 in
15:06 62.6 °F 32.3 °F 23.32 in NW 4.7 mph -999.0 mph 32 % 0 in
15:22 60.6 °F 34.2 °F 23.32 in NNE 2.7 mph -999.0 mph 37 % 0 in
15:37 59.2 °F 35.5 °F 23.32 in NW 5.8 mph -999.0 mph 41 % 0 in
15:52 58.8 °F 35.8 °F 23.32 in NW 4.7 mph -999.0 mph 42 % 0 in
16:07 58.6 °F 33.7 °F 23.32 in SSE 1.7 mph -999.0 mph 39 % 0 in
16:22 60.4 °F 31.9 °F 23.32 in NNE 3.7 mph -999.0 mph 34 % 0 in
16:38 62.1 °F 34.1 °F 23.32 in NW 5.8 mph -999.0 mph 35 % 0 in
16:53 64.0 °F 34.3 °F 23.32 in NNW 4.7 mph -999.0 mph 33 % 0 in
17:09 60.4 °F 36.6 °F 23.32 in NW 8.3 mph -999.0 mph 41 % 0 in
17:40 58.6 °F 33.7 °F 23.33 in NW 3.7 mph -999.0 mph 39 % 0 in
17:55 57.9 °F 34.3 °F 23.32 in West 4.7 mph -999.0 mph 41 % 0 in
18:10 55.4 °F 32.7 °F 23.32 in NW 6.3 mph -999.0 mph 42 % 0 in
18:26 53.6 °F 31.6 °F 23.32 in NW 5.8 mph -999.0 mph 43 % 0 in
18:41 53.2 °F 28.9 °F 23.31 in WNW 9.4 mph -999.0 mph 39 % 0 in
18:56 53.8 °F 31.2 °F 23.31 in NW 9.9 mph -999.0 mph 42 % 0 in
19:12 52.9 °F 31.6 °F 23.30 in NW 9.4 mph -999.0 mph 44 % 0 in
19:27 52.3 °F 31.6 °F 23.31 in WNW 7.3 mph -999.0 mph 45 % 0 in
19:42 51.6 °F 32.5 °F 23.31 in NW 8.3 mph -999.0 mph 48 % 0 in
19:58 51.1 °F 31.6 °F 23.32 in NW 8.3 mph -999.0 mph 47 % 0 in
20:13 50.4 °F 32.0 °F 23.32 in NW 6.8 mph -999.0 mph 49 % 0 in
20:28 50.0 °F 33.1 °F 23.32 in NW 6.8 mph -999.0 mph 52 % 0 in
20:44 49.8 °F 32.4 °F 23.33 in WNW 7.8 mph -999.0 mph 51 % 0 in
20:59 49.5 °F 31.6 °F 23.32 in NNW 7.3 mph -999.0 mph 50 % 0 in
21:15 49.5 °F 32.1 °F 23.32 in NNW 4.2 mph -999.0 mph 51 % 0 in
21:30 49.3 °F 32.4 °F 23.33 in WNW 7.3 mph -999.0 mph 52 % 0 in
21:46 48.7 °F 30.9 °F 23.33 in NNW 8.9 mph -999.0 mph 50 % 0 in
22:01 48.2 °F 29.9 °F 23.33 in NW 3.7 mph -999.0 mph 49 % 0 in
22:16 47.7 °F 30.4 °F 23.33 in WNW 6.3 mph -999.0 mph 51 % 0 in
22:31 47.3 °F 30.6 °F 23.32 in NW 8.3 mph -999.0 mph 52 % 0 in
22:47 47.3 °F 30.6 °F 23.32 in NW 7.3 mph -999.0 mph 52 % 0 in
23:02 47.5 °F 30.7 °F 23.32 in NW 8.9 mph -999.0 mph 52 % 0 in
Big Bear CA Weather
Compliments of Weather Underground - 1.5 mb